Time;durP1;ratioP1;P1;durP2;ratioP2;P2;SDS_P1;SDS_P2;PMS_P1;PMS_P2;Temp;Humidity;BMP_temperature;BMP_pressure;BME280_temperature;BME280_humidity;BME280_pressure;Samples;Min_cycle;Max_cycle;Signal;HPM_P1;HPM_P2
2023/12/13 00:00:25;;;;;;;1.58;0.80;;;12.20;99.90;;;;;;5012768;28;20022;-43
2023/12/13 00:02:51;;;;;;;1.45;0.88;;;12.20;99.90;;;;;;5012236;28;20028;-43
2023/12/13 00:05:16;;;;;;;1.35;0.90;;;12.20;99.90;;;;;;5012529;28;20536;-43
2023/12/13 00:07:42;;;;;;;0.95;0.60;;;12.20;99.90;;;;;;5012161;28;20035;-41
2023/12/13 00:10:08;;;;;;;0.80;0.50;;;12.20;99.90;;;;;;5012512;28;20029;-40
2023/12/13 00:12:34;;;;;;;1.23;0.80;;;12.20;99.90;;;;;;5012311;28;20033;-43
2023/12/13 00:14:59;;;;;;;1.35;0.60;;;12.20;99.90;;;;;;5012121;28;20479;-43
2023/12/13 00:17:26;;;;;;;0.82;0.60;;;12.20;99.90;;;;;;5011306;28;20380;-42
2023/12/13 00:23:14;;;;;;;1.20;0.57;;;12.20;99.90;;;;;;5012339;28;20052;-39
2023/12/13 00:25:39;;;;;;;1.27;0.73;;;12.10;99.90;;;;;;5012173;28;20030;-43
2023/12/13 00:28:36;;;;;;;1.23;0.68;;;12.20;99.90;;;;;;5011729;28;20048;-43
2023/12/13 00:31:03;;;;;;;1.00;0.70;;;12.10;99.90;;;;;;5012433;28;20030;-42
2023/12/13 00:33:29;;;;;;;1.67;0.60;;;12.10;99.90;;;;;;5011076;28;20029;-42
2023/12/13 00:35:54;;;;;;;1.20;0.70;;;12.20;99.90;;;;;;5013286;28;20403;-41
2023/12/13 00:38:20;;;;;;;1.35;0.70;;;12.20;99.90;;;;;;5012193;28;20018;-43
2023/12/13 00:40:45;;;;;;;1.25;0.73;;;12.20;99.90;;;;;;5013395;28;20028;-43
2023/12/13 00:43:11;;;;;;;1.27;0.80;;;12.10;99.90;;;;;;5015937;28;20026;-43
2023/12/13 00:45:37;;;;;;;1.00;0.60;;;12.10;99.90;;;;;;5015614;28;20097;-39
2023/12/13 00:48:02;;;;;;;1.42;0.73;;;12.10;99.90;;;;;;5015400;28;20061;-43
2023/12/13 00:50:28;;;;;;;0.90;0.70;;;12.10;99.90;;;;;;5014625;28;20096;-40
2023/12/13 00:52:53;;;;;;;2.28;0.63;;;12.10;99.90;;;;;;5014528;28;20061;-41
2023/12/13 00:55:19;;;;;;;1.00;0.60;;;12.10;99.90;;;;;;5015293;28;20037;-43
2023/12/13 00:57:44;;;;;;;2.10;0.60;;;12.10;99.90;;;;;;5014594;28;20030;-41
2023/12/13 01:00:11;;;;;;;1.33;0.63;;;12.10;99.90;;;;;;5016423;28;20026;-43
2023/12/13 01:02:36;;;;;;;1.13;0.60;;;12.10;99.90;;;;;;5015207;28;20026;-39
2023/12/13 01:05:02;;;;;;;1.92;0.80;;;12.20;99.90;;;;;;5015165;28;20029;-43
2023/12/13 01:07:28;;;;;;;1.45;0.65;;;12.10;99.90;;;;;;5015820;28;20369;-43
2023/12/13 01:09:53;;;;;;;1.10;0.70;;;12.10;99.90;;;;;;5014440;28;20022;-41
2023/12/13 01:12:19;;;;;;;0.93;0.47;;;12.10;99.90;;;;;;5014095;28;20052;-43
2023/12/13 01:14:44;;;;;;;2.17;0.70;;;12.20;99.90;;;;;;5014815;28;20080;-43
2023/12/13 01:17:11;;;;;;;1.67;0.82;;;12.10;99.90;;;;;;5014228;28;20022;-43
2023/12/13 01:19:37;;;;;;;1.23;0.68;;;12.20;99.90;;;;;;5014979;28;20033;-43
2023/12/13 01:22:02;;;;;;;1.77;0.60;;;12.20;99.90;;;;;;5014874;28;20034;-43
2023/12/13 01:24:28;;;;;;;1.10;0.70;;;12.10;99.90;;;;;;5014471;28;20029;-43
2023/12/13 01:26:53;;;;;;;0.70;0.40;;;12.10;99.90;;;;;;5013213;28;20030;-43
2023/12/13 01:29:19;;;;;;;2.10;0.60;;;12.10;99.90;;;;;;5014687;28;20025;-42
2023/12/13 01:31:45;;;;;;;0.75;0.57;;;12.20;99.90;;;;;;5014916;28;20029;-43
2023/12/13 01:34:10;;;;;;;1.48;0.70;;;12.10;99.90;;;;;;5013738;28;20098;-42
2023/12/13 01:36:42;;;;;;;1.42;0.50;;;12.10;99.90;;;;;;5014046;28;20030;-43
2023/12/13 01:39:08;;;;;;;1.15;0.50;;;12.10;99.90;;;;;;5014392;28;20034;-39
2023/12/13 01:41:34;;;;;;;1.42;0.63;;;12.10;99.90;;;;;;5013426;28;20022;-40
2023/12/13 01:43:59;;;;;;;1.38;0.60;;;12.10;99.90;;;;;;5013848;28;20033;-43
2023/12/13 01:46:25;;;;;;;1.70;0.60;;;12.10;99.90;;;;;;5014335;28;20498;-43
2023/12/13 01:48:51;;;;;;;0.50;0.40;;;12.10;99.90;;;;;;5013842;28;20030;-43
2023/12/13 01:51:18;;;;;;;0.98;0.50;;;12.10;99.90;;;;;;5013358;28;20051;-42
2023/12/13 01:53:44;;;;;;;1.85;0.40;;;12.10;99.90;;;;;;5012802;28;20026;-43
2023/12/13 01:56:11;;;;;;;0.98;0.50;;;12.10;99.90;;;;;;5013106;28;20033;-41
2023/12/13 01:58:38;;;;;;;1.42;0.40;;;12.10;99.90;;;;;;5014505;28;20061;-42
2023/12/13 02:01:05;;;;;;;0.63;0.47;;;12.10;99.90;;;;;;5013590;28;20053;-43
2023/12/13 02:03:32;;;;;;;0.85;0.47;;;12.10;99.90;;;;;;5013249;28;20061;-40
2023/12/13 02:05:58;;;;;;;0.65;0.38;;;12.10;99.90;;;;;;5013547;28;20022;-43
2023/12/13 02:08:23;;;;;;;1.02;0.47;;;12.10;99.90;;;;;;5014421;28;20034;-43
2023/12/13 02:10:49;;;;;;;0.85;0.52;;;12.10;99.90;;;;;;5014280;28;20484;-43
2023/12/13 02:13:15;;;;;;;0.90;0.45;;;12.10;99.90;;;;;;5014142;28;20484;-43
2023/12/13 02:15:43;;;;;;;1.80;0.50;;;12.10;99.90;;;;;;5012853;28;20135;-43
2023/12/13 02:18:09;;;;;;;0.60;0.40;;;12.10;99.90;;;;;;5013952;28;20022;-40
2023/12/13 02:20:35;;;;;;;0.60;0.40;;;12.10;99.90;;;;;;5013062;28;20056;-42
2023/12/13 02:23:00;;;;;;;0.77;0.40;;;12.10;99.90;;;;;;5012622;28;20488;-42
2023/12/13 02:25:59;;;;;;;1.50;0.47;;;12.10;99.90;;;;;;5013901;28;20026;-39
2023/12/13 02:28:25;;;;;;;1.10;0.40;;;12.10;99.90;;;;;;5012038;28;20045;-42
2023/12/13 02:30:54;;;;;;;1.75;0.50;;;12.10;99.90;;;;;;5012949;28;20033;-38
2023/12/13 02:33:24;;;;;;;1.05;0.50;;;12.10;99.90;;;;;;5013003;28;20042;-43
2023/12/13 02:35:52;;;;;;;0.30;0.30;;;12.10;99.90;;;;;;5013718;28;20077;-43
2023/12/13 02:38:17;;;;;;;0.70;0.38;;;12.10;99.90;;;;;;5012903;28;20464;-41
2023/12/13 02:40:43;;;;;;;0.93;0.50;;;12.10;99.90;;;;;;5013995;28;20029;-43
2023/12/13 02:43:08;;;;;;;0.68;0.28;;;12.10;99.90;;;;;;5013775;28;20022;-43
2023/12/13 02:45:34;;;;;;;0.77;0.50;;;12.10;99.90;;;;;;5013648;28;20260;-43
2023/12/13 02:48:00;;;;;;;0.32;0.30;;;12.10;99.90;;;;;;5012212;28;20105;-43
2023/12/13 02:50:26;;;;;;;0.68;0.40;;;12.10;99.90;;;;;;5013087;28;20091;-43
2023/12/13 02:52:52;;;;;;;1.17;0.45;;;12.20;99.90;;;;;;5013487;28;20029;-41
2023/12/13 02:55:18;;;;;;;0.75;0.40;;;12.20;99.90;;;;;;5012657;28;20026;-43
2023/12/13 02:57:43;;;;;;;1.08;0.40;;;12.20;99.90;;;;;;5012644;28;20028;-43
2023/12/13 03:00:09;;;;;;;0.50;0.40;;;12.30;99.90;;;;;;5013043;28;20022;-41
2023/12/13 03:02:36;;;;;;;0.65;0.30;;;12.30;99.90;;;;;;5014211;28;20056;-43
2023/12/13 03:05:03;;;;;;;0.40;0.35;;;12.30;99.90;;;;;;5012703;28;20026;-43
2023/12/13 03:07:29;;;;;;;1.30;0.40;;;12.30;99.90;;;;;;5012460;28;20109;-43
2023/12/13 03:09:55;;;;;;;0.93;0.50;;;12.40;99.90;;;;;;5012203;28;20105;-43
2023/12/13 03:12:20;;;;;;;0.52;0.35;;;12.40;99.90;;;;;;5012535;28;20022;-43
2023/12/13 03:14:46;;;;;;;0.45;0.35;;;12.40;99.90;;;;;;5012906;28;20029;-43
2023/12/13 03:17:12;;;;;;;0.50;0.40;;;12.40;99.90;;;;;;5013229;28;20054;-43
2023/12/13 03:19:38;;;;;;;1.48;0.40;;;12.40;99.90;;;;;;5013206;28;20026;-43
2023/12/13 03:22:04;;;;;;;1.63;0.57;;;12.40;99.90;;;;;;5013072;28;20026;-43
2023/12/13 03:24:29;;;;;;;0.50;0.40;;;12.40;99.90;;;;;;5013105;28;20026;-43
2023/12/13 03:26:55;;;;;;;0.80;0.40;;;12.40;99.90;;;;;;5012897;28;20018;-43
2023/12/13 03:29:21;;;;;;;0.52;0.30;;;12.50;99.90;;;;;;5012556;28;20032;-43
2023/12/13 03:31:46;;;;;;;1.15;0.50;;;12.50;99.90;;;;;;5011849;28;20049;-41
2023/12/13 03:34:14;;;;;;;0.80;0.40;;;12.50;99.90;;;;;;5011713;28;20464;-43
2023/12/13 03:36:40;;;;;;;0.73;0.43;;;12.50;99.90;;;;;;5011521;28;20026;-38
2023/12/13 03:39:07;;;;;;;0.90;0.50;;;12.50;99.90;;;;;;5011545;28;20101;-42
2023/12/13 03:41:33;;;;;;;1.00;0.30;;;12.50;99.90;;;;;;5011492;28;20022;-37
2023/12/13 03:43:58;;;;;;;1.15;0.30;;;12.50;99.90;;;;;;5011414;28;20014;-39
2023/12/13 03:46:24;;;;;;;1.02;0.50;;;12.50;99.90;;;;;;5011499;28;20406;-42
2023/12/13 03:48:50;;;;;;;0.50;0.30;;;12.50;99.90;;;;;;5011475;28;20022;-42
2023/12/13 03:51:15;;;;;;;0.22;0.20;;;12.50;99.90;;;;;;5011416;28;20064;-43
2023/12/13 03:53:42;;;;;;;1.08;0.35;;;12.50;99.90;;;;;;5011590;28;20092;-40
2023/12/13 03:56:11;;;;;;;0.35;0.28;;;12.50;99.90;;;;;;5011317;28;20112;-43
2023/12/13 03:58:37;;;;;;;0.73;0.30;;;12.50;99.90;;;;;;5011173;28;20080;-40
2023/12/13 04:01:03;;;;;;;1.40;0.43;;;12.50;99.90;;;;;;5011371;28;20022;-41
2023/12/13 04:03:28;;;;;;;1.17;0.52;;;12.50;99.90;;;;;;5011774;28;20091;-40
2023/12/13 04:05:54;;;;;;;0.73;0.30;;;12.50;99.90;;;;;;5011300;28;20123;-43
2023/12/13 04:08:20;;;;;;;0.85;0.43;;;12.50;99.90;;;;;;5011218;28;20030;-42
2023/12/13 04:10:45;;;;;;;0.70;0.30;;;12.50;99.90;;;;;;5011250;28;20152;-42
2023/12/13 04:13:11;;;;;;;0.43;0.30;;;12.50;99.90;;;;;;5011143;28;20037;-42
2023/12/13 04:15:36;;;;;;;1.08;0.43;;;12.50;99.90;;;;;;5011466;28;20030;-39
2023/12/13 04:18:03;;;;;;;0.98;0.30;;;12.50;99.90;;;;;;5015109;28;20100;-43
2023/12/13 04:20:29;;;;;;;0.35;0.30;;;12.40;99.90;;;;;;5017247;28;20548;-43
2023/12/13 04:22:55;;;;;;;0.30;0.20;;;12.50;99.90;;;;;;5015807;28;20034;-39
2023/12/13 04:25:21;;;;;;;0.82;0.47;;;12.40;99.90;;;;;;5015646;28;20375;-39
2023/12/13 04:27:47;;;;;;;0.65;0.30;;;12.40;99.90;;;;;;5014719;28;20456;-41
2023/12/13 04:30:16;;;;;;;0.85;0.40;;;12.40;99.90;;;;;;5015230;28;20028;-43
2023/12/13 04:32:42;;;;;;;1.25;0.40;;;12.40;99.90;;;;;;5015181;28;20087;-43
2023/12/13 04:35:08;;;;;;;0.40;0.28;;;12.40;99.90;;;;;;5014841;28;20034;-43
2023/12/13 04:37:35;;;;;;;0.80;0.30;;;12.40;99.90;;;;;;5014745;28;20061;-43
2023/12/13 04:40:01;;;;;;;1.42;0.40;;;12.40;99.90;;;;;;5014669;28;20022;-39
2023/12/13 04:42:27;;;;;;;0.45;0.30;;;12.40;99.90;;;;;;5014614;28;20105;-43
2023/12/13 04:44:53;;;;;;;0.68;0.20;;;12.40;99.90;;;;;;5013387;28;20121;-42
2023/12/13 04:47:19;;;;;;;0.60;0.40;;;12.40;99.90;;;;;;5014502;28;20101;-43
2023/12/13 04:49:45;;;;;;;0.43;0.30;;;12.40;99.90;;;;;;5014500;28;20132;-41
2023/12/13 04:52:10;;;;;;;1.48;0.40;;;12.40;99.90;;;;;;5014558;28;20079;-43
2023/12/13 04:54:37;;;;;;;0.65;0.30;;;12.40;99.90;;;;;;5014358;28;20026;-43
2023/12/13 04:57:03;;;;;;;0.30;0.22;;;12.40;99.90;;;;;;5014357;28;20022;-43
2023/12/13 04:59:29;;;;;;;0.60;0.30;;;12.30;99.90;;;;;;5014707;28;20442;-43
2023/12/13 05:01:54;;;;;;;0.57;0.30;;;12.30;99.90;;;;;;5014348;28;20025;-43
2023/12/13 05:04:20;;;;;;;0.98;0.40;;;12.30;99.90;;;;;;5014329;28;20392;-43
2023/12/13 05:06:46;;;;;;;0.40;0.20;;;12.30;99.90;;;;;;5014267;28;20105;-43
2023/12/13 05:09:11;;;;;;;0.35;0.28;;;12.30;99.90;;;;;;5014087;28;20057;-43
2023/12/13 05:11:37;;;;;;;0.52;0.40;;;12.30;99.90;;;;;;5014028;28;20049;-43
2023/12/13 05:14:03;;;;;;;0.50;0.30;;;12.30;99.90;;;;;;5014212;28;20026;-43
2023/12/13 05:16:29;;;;;;;0.38;0.20;;;12.30;99.90;;;;;;5014321;28;20022;-43
2023/12/13 05:18:54;;;;;;;0.65;0.32;;;12.30;99.90;;;;;;5014031;28;20033;-43
2023/12/13 05:21:21;;;;;;;0.90;0.40;;;12.30;99.90;;;;;;5013967;28;20024;-43
2023/12/13 05:23:47;;;;;;;0.77;0.30;;;12.30;99.90;;;;;;5013879;28;20034;-43
2023/12/13 05:26:13;;;;;;;0.30;0.25;;;12.30;99.90;;;;;;5013783;28;20084;-43
2023/12/13 05:28:39;;;;;;;1.45;0.30;;;12.30;99.90;;;;;;5012990;28;20101;-43
2023/12/13 05:31:05;;;;;;;0.93;0.63;;;12.30;99.90;;;;;;5013824;28;20582;-43
2023/12/13 05:33:31;;;;;;;0.40;0.30;;;12.30;99.90;;;;;;5013920;28;20096;-43
2023/12/13 05:35:56;;;;;;;1.08;0.40;;;12.30;99.90;;;;;;5013723;28;20026;-43
2023/12/13 05:38:22;;;;;;;0.50;0.30;;;12.30;99.90;;;;;;5013534;28;20041;-43
2023/12/13 05:40:48;;;;;;;0.38;0.35;;;12.30;99.90;;;;;;5013529;28;20022;-43
2023/12/13 05:43:13;;;;;;;0.50;0.30;;;12.30;99.90;;;;;;5014002;28;20054;-43
2023/12/13 05:45:39;;;;;;;1.25;0.40;;;12.30;99.90;;;;;;5015062;28;20026;-43
2023/12/13 05:48:05;;;;;;;0.45;0.30;;;12.20;99.90;;;;;;5013358;28;20065;-44
2023/12/13 05:50:31;;;;;;;1.58;0.90;;;12.20;99.90;;;;;;5013387;28;20037;-44
2023/12/13 05:52:56;;;;;;;1.92;0.80;;;12.20;99.90;;;;;;5013307;28;20038;-43
2023/12/13 05:55:22;;;;;;;0.50;0.35;;;12.20;99.90;;;;;;5013227;28;20030;-44
2023/12/13 05:57:48;;;;;;;0.95;0.70;;;12.20;99.90;;;;;;5013211;28;20022;-44
2023/12/13 06:00:14;;;;;;;2.00;0.65;;;12.20;99.90;;;;;;5013389;28;20018;-44
2023/12/13 06:02:40;;;;;;;2.05;0.80;;;12.20;99.90;;;;;;5013335;28;20392;-44
2023/12/13 06:05:06;;;;;;;2.38;0.50;;;12.10;99.90;;;;;;5013169;28;20018;-44
2023/12/13 06:07:32;;;;;;;2.65;0.80;;;12.10;99.90;;;;;;5013024;28;20040;-44
2023/12/13 06:09:58;;;;;;;1.05;0.40;;;12.10;99.90;;;;;;5012894;28;20164;-44
2023/12/13 06:12:24;;;;;;;2.47;0.50;;;12.20;99.90;;;;;;5013024;28;20105;-44
2023/12/13 06:14:50;;;;;;;1.05;0.50;;;12.10;99.90;;;;;;5012879;28;20484;-43
2023/12/13 06:17:15;;;;;;;1.25;0.50;;;12.10;99.90;;;;;;5012822;28;20034;-44
2023/12/13 06:19:41;;;;;;;0.88;0.40;;;12.10;99.90;;;;;;5012835;28;20022;-44
2023/12/13 06:22:07;;;;;;;3.85;0.60;;;12.10;99.90;;;;;;5012765;28;20443;-44
2023/12/13 06:24:33;;;;;;;1.50;0.57;;;12.10;99.90;;;;;;5012861;28;20343;-44
2023/12/13 06:26:59;;;;;;;1.17;0.50;;;12.10;99.90;;;;;;5012736;28;20057;-42
2023/12/13 06:29:25;;;;;;;1.38;0.60;;;12.10;99.90;;;;;;5012621;28;20030;-43
2023/12/13 06:31:51;;;;;;;1.65;0.60;;;12.10;99.90;;;;;;5013870;28;20255;-43
2023/12/13 06:34:17;;;;;;;0.57;0.40;;;12.10;99.90;;;;;;5012652;28;20022;-43
2023/12/13 06:36:42;;;;;;;2.05;0.70;;;12.10;99.90;;;;;;5012398;28;20034;-43
2023/12/13 06:39:11;;;;;;;1.38;0.55;;;12.10;99.90;;;;;;5010917;28;20144;-43
2023/12/13 06:41:37;;;;;;;1.27;0.60;;;12.10;99.90;;;;;;5012483;28;20018;-43
2023/12/13 06:44:03;;;;;;;0.90;0.50;;;12.10;99.90;;;;;;5012488;28;20014;-43
2023/12/13 06:46:29;;;;;;;1.25;0.50;;;12.10;99.90;;;;;;5012347;28;20026;-43
2023/12/13 06:48:55;;;;;;;1.10;0.80;;;12.10;99.90;;;;;;5012310;28;20427;-43
2023/12/13 06:51:21;;;;;;;0.90;0.57;;;12.10;99.90;;;;;;5012198;28;20038;-43
2023/12/13 06:53:46;;;;;;;0.98;0.60;;;12.10;99.90;;;;;;5012674;28;20057;-43
2023/12/13 06:56:12;;;;;;;0.60;0.40;;;12.10;99.90;;;;;;5012120;28;20032;-43
2023/12/13 06:58:38;;;;;;;0.50;0.40;;;12.10;99.90;;;;;;5012100;28;20499;-44
2023/12/13 07:01:04;;;;;;;1.00;0.50;;;12.10;99.90;;;;;;5012268;28;20060;-43
2023/12/13 07:03:30;;;;;;;1.27;0.50;;;12.10;99.90;;;;;;5012171;28;20054;-43
2023/12/13 07:05:56;;;;;;;0.80;0.40;;;12.10;99.90;;;;;;5011997;28;20060;-43
2023/12/13 07:08:21;;;;;;;1.00;0.50;;;12.10;99.90;;;;;;5011911;28;20037;-44
2023/12/13 07:10:47;;;;;;;1.58;0.70;;;12.10;99.90;;;;;;5012005;28;20022;-43
2023/12/13 07:13:13;;;;;;;1.02;0.60;;;12.10;99.90;;;;;;5012017;28;20466;-43
2023/12/13 07:15:38;;;;;;;1.60;0.60;;;12.10;99.90;;;;;;5011793;28;20030;-43
2023/12/13 07:18:04;;;;;;;1.30;0.50;;;12.10;99.90;;;;;;5011789;28;20022;-43
2023/12/13 07:20:33;;;;;;;0.70;0.47;;;12.10;99.90;;;;;;5011649;28;20030;-44
2023/12/13 07:22:59;;;;;;;3.60;0.70;;;12.10;99.90;;;;;;5011667;28;20112;-44
2023/12/13 07:25:25;;;;;;;4.85;0.77;;;12.10;99.90;;;;;;5011767;28;20169;-44
2023/12/13 07:27:51;;;;;;;2.67;0.63;;;12.10;99.90;;;;;;5011534;28;20036;-44
2023/12/13 07:30:16;;;;;;;1.13;0.52;;;12.10;99.90;;;;;;5011714;28;20037;-45
2023/12/13 07:32:43;;;;;;;2.13;0.70;;;12.00;99.90;;;;;;5012152;28;20056;-43
2023/12/13 07:35:09;;;;;;;2.28;0.75;;;12.10;99.90;;;;;;5011629;28;20025;-44
2023/12/13 07:37:35;;;;;;;0.82;0.65;;;12.10;99.90;;;;;;5011383;28;20018;-44
2023/12/13 07:40:06;;;;;;;1.98;0.52;;;12.10;99.90;;;;;;5011998;28;20480;-45
2023/12/13 07:42:32;;;;;;;1.75;0.73;;;12.10;99.90;;;;;;5011635;28;20392;-43
2023/12/13 07:44:58;;;;;;;1.52;0.63;;;12.10;99.90;;;;;;5011566;28;20029;-45
2023/12/13 07:47:24;;;;;;;1.60;0.60;;;12.10;99.90;;;;;;5011850;28;20396;-44
2023/12/13 07:49:50;;;;;;;0.95;0.50;;;12.10;99.90;;;;;;5012168;28;20030;-43
2023/12/13 07:52:15;;;;;;;1.38;0.60;;;12.10;99.90;;;;;;5010831;28;20112;-44
2023/12/13 07:54:42;;;;;;;1.63;0.70;;;12.10;99.90;;;;;;5011479;28;20088;-44
2023/12/13 07:57:08;;;;;;;0.95;0.55;;;12.10;99.90;;;;;;5012354;28;20026;-44
2023/12/13 07:59:33;;;;;;;2.03;0.70;;;12.10;99.90;;;;;;5012468;28;20369;-43
2023/12/13 08:01:59;;;;;;;1.25;0.68;;;12.10;99.90;;;;;;5013252;28;20026;-45
2023/12/13 08:04:25;;;;;;;1.30;0.60;;;12.10;99.90;;;;;;5011416;28;20377;-44
2023/12/13 08:06:51;;;;;;;0.68;0.32;;;12.10;99.90;;;;;;5011183;28;20068;-45
2023/12/13 08:09:19;;;;;;;0.85;0.60;;;12.10;99.90;;;;;;5011562;28;20026;-44
2023/12/13 08:11:46;;;;;;;1.17;0.70;;;12.10;99.90;;;;;;5012363;28;20042;-45
2023/12/13 08:14:13;;;;;;;0.95;0.57;;;12.10;99.90;;;;;;5012856;28;20037;-44
2023/12/13 08:16:39;;;;;;;1.42;0.57;;;12.20;99.90;;;;;;5011864;28;20025;-43
2023/12/13 08:19:05;;;;;;;0.90;0.43;;;12.20;99.90;;;;;;5011193;28;20030;-44
2023/12/13 08:21:31;;;;;;;0.88;0.50;;;12.20;99.90;;;;;;5011850;28;20105;-44
2023/12/13 08:23:57;;;;;;;1.38;0.70;;;12.20;99.90;;;;;;5011272;28;20026;-44
2023/12/13 08:26:25;;;;;;;1.13;0.60;;;12.30;99.90;;;;;;5012192;28;20388;-44
2023/12/13 08:28:51;;;;;;;0.85;0.50;;;12.30;99.90;;;;;;5012548;28;20480;-45
2023/12/13 08:31:17;;;;;;;1.00;0.70;;;12.40;99.90;;;;;;5014185;28;20379;-44
2023/12/13 08:33:43;;;;;;;1.33;0.65;;;12.40;99.90;;;;;;5013383;28;20030;-44
2023/12/13 08:36:12;;;;;;;0.73;0.43;;;12.40;99.90;;;;;;5011668;28;20053;-44
2023/12/13 08:38:41;;;;;;;1.13;0.45;;;12.40;99.90;;;;;;5011026;28;20022;-44
2023/12/13 08:41:07;;;;;;;0.73;0.50;;;12.50;99.90;;;;;;5011015;28;20022;-44
2023/12/13 08:43:33;;;;;;;1.40;0.70;;;12.50;99.90;;;;;;5011077;28;20024;-43
2023/12/13 08:45:59;;;;;;;0.35;0.30;;;12.60;99.90;;;;;;5010865;28;20022;-44
2023/12/13 08:48:25;;;;;;;1.15;0.50;;;12.60;99.90;;;;;;5010876;28;20488;-44
2023/12/13 08:50:51;;;;;;;0.80;0.40;;;12.60;99.90;;;;;;5010908;28;20249;-45
2023/12/13 08:53:17;;;;;;;0.50;0.35;;;12.70;99.90;;;;;;5011004;28;20116;-43
2023/12/13 08:55:42;;;;;;;0.93;0.50;;;12.70;99.90;;;;;;5010773;28;20030;-43
2023/12/13 08:58:08;;;;;;;0.90;0.70;;;12.80;99.90;;;;;;5010855;28;20025;-44
2023/12/13 09:00:33;;;;;;;0.52;0.40;;;12.80;99.90;;;;;;5010707;28;20030;-44
2023/12/13 09:02:59;;;;;;;0.60;0.40;;;12.90;99.90;;;;;;5010426;28;20084;-44
2023/12/13 09:05:25;;;;;;;1.30;0.50;;;12.90;99.90;;;;;;5014300;28;20157;-43
2023/12/13 09:07:50;;;;;;;0.93;0.50;;;13.00;99.90;;;;;;5012928;28;20026;-43
2023/12/13 09:10:16;;;;;;;0.60;0.50;;;13.00;99.90;;;;;;5014202;28;20041;-43
2023/12/13 09:12:42;;;;;;;0.82;0.60;;;13.10;99.90;;;;;;5014268;28;20119;-43
2023/12/13 09:15:07;;;;;;;1.50;0.55;;;13.10;99.90;;;;;;5013972;28;20038;-43
2023/12/13 09:17:34;;;;;;;0.60;0.45;;;13.20;99.90;;;;;;5013961;28;20033;-45
2023/12/13 09:20:00;;;;;;;0.90;0.45;;;13.20;99.90;;;;;;5013995;28;20018;-44
2023/12/13 09:22:25;;;;;;;0.73;0.40;;;13.30;99.90;;;;;;5013892;28;20084;-44
2023/12/13 09:24:51;;;;;;;2.65;0.50;;;13.30;99.90;;;;;;5013979;28;20050;-44
2023/12/13 09:27:16;;;;;;;1.83;0.40;;;13.40;99.90;;;;;;5013587;28;20026;-45
2023/12/13 09:29:42;;;;;;;0.68;0.40;;;13.40;99.90;;;;;;5014097;28;20029;-45
2023/12/13 09:32:08;;;;;;;0.73;0.40;;;13.40;99.90;;;;;;5014379;28;20029;-44
2023/12/13 09:34:34;;;;;;;1.05;0.52;;;13.50;99.90;;;;;;5015403;28;20057;-44
2023/12/13 09:37:00;;;;;;;0.95;0.40;;;13.50;99.90;;;;;;5013831;28;20490;-44
2023/12/13 09:39:25;;;;;;;0.47;0.30;;;13.60;99.90;;;;;;5014693;28;20092;-44
2023/12/13 09:42:02;;;;;;;3.33;0.40;;;13.60;99.90;;;;;;5015470;28;20053;-44
2023/12/13 09:44:29;;;;;;;2.05;0.77;;;13.70;99.90;;;;;;5014866;28;20050;-43
2023/12/13 09:47:00;;;;;;;1.23;0.50;;;13.70;99.90;;;;;;5013490;28;20491;-45
2023/12/13 09:49:28;;;;;;;0.82;0.47;;;13.70;99.90;;;;;;5014459;28;20064;-45
2023/12/13 09:51:55;;;;;;;0.60;0.50;;;13.80;99.90;;;;;;5014142;28;20032;-45
2023/12/13 09:54:21;;;;;;;0.50;0.40;;;13.80;99.90;;;;;;5014762;28;20050;-45
2023/12/13 09:56:47;;;;;;;0.80;0.60;;;13.80;99.90;;;;;;5013293;28;20037;-44
2023/12/13 09:59:12;;;;;;;0.90;0.60;;;13.90;99.90;;;;;;5013766;28;20057;-44
2023/12/13 10:01:38;;;;;;;0.88;0.50;;;13.90;99.90;;;;;;5013999;28;20376;-44
2023/12/13 10:04:04;;;;;;;0.80;0.52;;;14.00;99.90;;;;;;5014090;28;20071;-44
2023/12/13 10:06:29;;;;;;;0.68;0.45;;;13.90;99.90;;;;;;5013068;28;20400;-43
2023/12/13 10:09:01;;;;;;;0.50;0.40;;;14.00;99.90;;;;;;5012935;28;20045;-44
2023/12/13 10:11:27;;;;;;;1.27;0.60;;;14.10;99.90;;;;;;5014321;28;20384;-44
2023/12/13 10:13:54;;;;;;;0.95;0.40;;;14.10;99.90;;;;;;5012945;28;20424;-44
2023/12/13 10:16:20;;;;;;;1.05;0.63;;;14.10;99.90;;;;;;5014243;28;20504;-44
2023/12/13 10:18:46;;;;;;;0.98;0.60;;;14.10;99.90;;;;;;5013111;28;20058;-44
2023/12/13 10:21:13;;;;;;;1.13;0.50;;;14.20;99.90;;;;;;5013845;28;20018;-44
2023/12/13 10:23:40;;;;;;;1.45;0.45;;;14.20;99.90;;;;;;5014451;28;20030;-43
2023/12/13 10:26:06;;;;;;;0.52;0.43;;;14.30;99.90;;;;;;5012972;28;20113;-44
2023/12/13 10:28:35;;;;;;;0.47;0.40;;;14.30;99.90;;;;;;5012572;28;20104;-45
2023/12/13 10:31:02;;;;;;;0.88;0.40;;;14.40;99.90;;;;;;5013033;28;20030;-45
2023/12/13 10:33:28;;;;;;;1.80;0.80;;;14.40;99.90;;;;;;5012984;28;20029;-44
2023/12/13 10:35:57;;;;;;;0.80;0.60;;;14.50;99.90;;;;;;5012942;28;20361;-45
2023/12/13 10:38:25;;;;;;;0.95;0.60;;;14.60;99.90;;;;;;5013719;28;20046;-44
2023/12/13 10:40:52;;;;;;;0.63;0.40;;;14.70;99.90;;;;;;5013445;28;20072;-44
2023/12/13 10:43:20;;;;;;;1.55;0.60;;;14.70;99.90;;;;;;5012155;28;20057;-44
2023/12/13 10:46:02;;;;;;;0.90;0.50;;;14.80;99.90;;;;;;5013268;28;20041;-44
2023/12/13 10:48:37;;;;;;;1.10;0.60;;;14.90;99.90;;;;;;5012611;28;20080;-43
2023/12/13 10:51:03;;;;;;;1.30;0.50;;;14.90;99.90;;;;;;5012072;28;20079;-43
2023/12/13 10:53:34;;;;;;;0.75;0.50;;;15.00;99.90;;;;;;5013732;28;20048;-44
2023/12/13 10:56:00;;;;;;;1.13;0.60;;;15.00;99.90;;;;;;5013491;28;20018;-44
2023/12/13 10:58:27;;;;;;;1.23;0.70;;;15.10;99.90;;;;;;5013906;28;20022;-44
2023/12/13 11:00:53;;;;;;;0.85;0.50;;;15.20;99.90;;;;;;5012573;28;20068;-43
2023/12/13 11:03:27;;;;;;;1.00;0.50;;;15.30;99.90;;;;;;5012770;28;20079;-44
2023/12/13 11:05:54;;;;;;;0.73;0.60;;;15.40;99.90;;;;;;5012852;28;20030;-44
2023/12/13 11:08:20;;;;;;;1.00;0.50;;;15.40;99.90;;;;;;5012172;28;20040;-44
2023/12/13 11:11:00;;;;;;;1.25;0.57;;;15.40;99.90;;;;;;5011974;28;20030;-43
2023/12/13 11:13:25;;;;;;;0.57;0.47;;;15.50;99.90;;;;;;5012886;28;20049;-43
2023/12/13 11:15:51;;;;;;;0.60;0.50;;;15.60;99.90;;;;;;5013751;28;20511;-44
2023/12/13 11:18:18;;;;;;;0.75;0.50;;;15.60;99.90;;;;;;5013310;28;20025;-44
2023/12/13 11:20:48;;;;;;;3.42;0.68;;;15.60;99.90;;;;;;5012878;28;20063;-44
2023/12/13 11:23:14;;;;;;;0.70;0.40;;;15.70;99.90;;;;;;5013974;28;20034;-45
2023/12/13 11:25:40;;;;;;;0.60;0.50;;;15.60;99.90;;;;;;5012016;28;20129;-45
2023/12/13 11:28:05;;;;;;;1.00;0.60;;;15.70;99.90;;;;;;5012883;28;20105;-43
2023/12/13 11:30:32;;;;;;;1.05;0.70;;;15.70;99.90;;;;;;5012094;28;20045;-44
2023/12/13 11:32:58;;;;;;;0.90;0.55;;;15.70;99.90;;;;;;5011939;28;20028;-43
2023/12/13 11:35:24;;;;;;;0.63;0.50;;;15.80;99.90;;;;;;5011632;28;20034;-44
2023/12/13 11:37:51;;;;;;;0.70;0.40;;;15.80;99.90;;;;;;5013550;28;20037;-44
2023/12/13 11:40:18;;;;;;;0.70;0.60;;;15.80;99.90;;;;;;5012919;28;20018;-43
2023/12/13 11:42:45;;;;;;;1.00;0.50;;;15.90;99.90;;;;;;5012831;28;20217;-44
2023/12/13 11:45:11;;;;;;;0.95;0.50;;;15.90;99.90;;;;;;5011721;28;20030;-44
2023/12/13 11:47:38;;;;;;;1.02;0.50;;;15.90;99.90;;;;;;5011326;28;20033;-44
2023/12/13 11:50:04;;;;;;;0.50;0.40;;;15.90;99.90;;;;;;5011505;28;20033;-44
2023/12/13 11:52:30;;;;;;;0.60;0.38;;;16.00;99.90;;;;;;5012856;28;20029;-44
2023/12/13 11:54:59;;;;;;;1.05;0.73;;;16.00;99.90;;;;;;5012589;28;20038;-43
2023/12/13 11:57:25;;;;;;;0.93;0.47;;;16.00;99.90;;;;;;5013623;28;20364;-44
2023/12/13 11:59:51;;;;;;;0.90;0.50;;;16.00;99.90;;;;;;5011839;28;20022;-44
2023/12/13 12:02:17;;;;;;;1.73;0.52;;;16.00;99.90;;;;;;5011768;28;20022;-44
2023/12/13 12:04:44;;;;;;;0.35;0.22;;;16.10;99.90;;;;;;5011533;28;20097;-44
2023/12/13 12:07:14;;;;;;;0.82;0.52;;;16.10;99.90;;;;;;5011270;28;20026;-44
2023/12/13 12:09:40;;;;;;;0.80;0.60;;;16.10;99.90;;;;;;5011088;28;20389;-44
2023/12/13 12:12:09;;;;;;;2.22;0.50;;;16.10;99.90;;;;;;5012431;28;20037;-44
2023/12/13 12:14:34;;;;;;;0.85;0.60;;;16.20;99.90;;;;;;5012332;28;20022;-44
2023/12/13 12:17:01;;;;;;;0.88;0.60;;;16.20;99.90;;;;;;5013512;28;20393;-44
2023/12/13 12:19:29;;;;;;;0.88;0.52;;;16.20;99.90;;;;;;5011095;28;20018;-44
2023/12/13 12:21:55;;;;;;;1.05;0.60;;;16.20;99.90;;;;;;5011184;28;20038;-45
2023/12/13 12:24:27;;;;;;;1.20;0.45;;;16.20;99.90;;;;;;5011302;28;20021;-44
2023/12/13 12:26:54;;;;;;;2.45;0.60;;;16.30;99.90;;;;;;5012288;28;20025;-43
2023/12/13 12:29:20;;;;;;;2.17;0.80;;;16.30;99.90;;;;;;5011439;28;20026;-43
2023/12/13 12:31:46;;;;;;;1.73;0.90;;;16.30;99.90;;;;;;5010898;28;20033;-44
2023/12/13 12:34:13;;;;;;;1.83;1.02;;;16.30;99.90;;;;;;5012333;28;20026;-43
2023/12/13 12:36:38;;;;;;;4.93;0.93;;;16.30;99.90;;;;;;5012123;28;20033;-44
2023/12/13 12:39:04;;;;;;;2.00;0.98;;;16.40;99.90;;;;;;5014778;28;20022;-44
2023/12/13 12:41:34;;;;;;;2.45;1.00;;;16.40;99.90;;;;;;5015819;28;20037;-44
2023/12/13 12:44:00;;;;;;;1.80;1.00;;;16.40;99.90;;;;;;5016107;28;20018;-41
2023/12/13 12:46:26;;;;;;;2.45;1.00;;;16.40;99.90;;;;;;5016655;28;20654;-43